sensor_id;sensor_type;location;lat;lon;timestamp;temperature;humidity
14934;DHT22;7560;51.364;12.384;2023-04-03T00:00:53;3.50;99.90
14934;DHT22;7560;51.364;12.384;2023-04-03T00:05:55;3.40;99.90
14934;DHT22;7560;51.364;12.384;2023-04-03T00:10:57;3.50;99.90
14934;DHT22;7560;51.364;12.384;2023-04-03T00:15:59;3.40;99.90
14934;DHT22;7560;51.364;12.384;2023-04-03T00:21:01;3.40;99.90
14934;DHT22;7560;51.364;12.384;2023-04-03T00:26:02;3.40;99.90
14934;DHT22;7560;51.364;12.384;2023-04-03T00:31:04;3.30;99.90
14934;DHT22;7560;51.364;12.384;2023-04-03T00:36:08;3.10;99.90
14934;DHT22;7560;51.364;12.384;2023-04-03T00:41:11;3.10;99.90
14934;DHT22;7560;51.364;12.384;2023-04-03T00:46:13;2.90;99.90
14934;DHT22;7560;51.364;12.384;2023-04-03T00:51:21;2.90;99.90
14934;DHT22;7560;51.364;12.384;2023-04-03T00:56:26;2.70;99.90
14934;DHT22;7560;51.364;12.384;2023-04-03T01:01:29;2.70;99.90
14934;DHT22;7560;51.364;12.384;2023-04-03T01:06:35;2.60;99.90
14934;DHT22;7560;51.364;12.384;2023-04-03T01:11:38;2.50;99.90
14934;DHT22;7560;51.364;12.384;2023-04-03T01:16:39;2.50;99.90
14934;DHT22;7560;51.364;12.384;2023-04-03T01:27:11;2.20;99.90
14934;DHT22;7560;51.364;12.384;2023-04-03T01:32:13;2.20;99.90
14934;DHT22;7560;51.364;12.384;2023-04-03T01:37:15;2.10;99.90
14934;DHT22;7560;51.364;12.384;2023-04-03T01:42:17;2.10;99.90
14934;DHT22;7560;51.364;12.384;2023-04-03T01:47:18;2.00;99.90
14934;DHT22;7560;51.364;12.384;2023-04-03T01:52:21;2.00;99.90
14934;DHT22;7560;51.364;12.384;2023-04-03T01:57:22;2.00;99.90
14934;DHT22;7560;51.364;12.384;2023-04-03T02:02:24;2.00;99.90
14934;DHT22;7560;51.364;12.384;2023-04-03T02:07:26;2.10;99.90
14934;DHT22;7560;51.364;12.384;2023-04-03T02:12:28;2.10;99.90
14934;DHT22;7560;51.364;12.384;2023-04-03T02:17:30;2.10;99.90
14934;DHT22;7560;51.364;12.384;2023-04-03T02:22:33;2.00;99.90
14934;DHT22;7560;51.364;12.384;2023-04-03T02:27:35;2.00;99.90
14934;DHT22;7560;51.364;12.384;2023-04-03T02:32:37;1.90;99.90
14934;DHT22;7560;51.364;12.384;2023-04-03T02:37:39;1.90;99.90
14934;DHT22;7560;51.364;12.384;2023-04-03T02:42:42;1.80;99.90
14934;DHT22;7560;51.364;12.384;2023-04-03T02:47:43;1.70;99.90
14934;DHT22;7560;51.364;12.384;2023-04-03T02:52:45;1.60;99.90
14934;DHT22;7560;51.364;12.384;2023-04-03T02:57:47;1.40;99.90
14934;DHT22;7560;51.364;12.384;2023-04-03T03:02:49;1.30;99.90
14934;DHT22;7560;51.364;12.384;2023-04-03T03:07:51;1.20;99.90
14934;DHT22;7560;51.364;12.384;2023-04-03T03:12:52;1.20;99.90
14934;DHT22;7560;51.364;12.384;2023-04-03T03:17:54;1.10;99.90
14934;DHT22;7560;51.364;12.384;2023-04-03T03:23:19;1.00;99.90
14934;DHT22;7560;51.364;12.384;2023-04-03T03:28:21;0.90;99.90
14934;DHT22;7560;51.364;12.384;2023-04-03T03:33:23;0.90;99.90
14934;DHT22;7560;51.364;12.384;2023-04-03T03:38:25;0.90;99.90
14934;DHT22;7560;51.364;12.384;2023-04-03T03:43:27;0.80;99.90
14934;DHT22;7560;51.364;12.384;2023-04-03T03:48:29;0.80;99.90
14934;DHT22;7560;51.364;12.384;2023-04-03T03:53:30;0.70;99.90
14934;DHT22;7560;51.364;12.384;2023-04-03T03:58:32;0.70;99.90
14934;DHT22;7560;51.364;12.384;2023-04-03T04:03:34;0.60;99.90
14934;DHT22;7560;51.364;12.384;2023-04-03T04:08:36;0.60;99.90
14934;DHT22;7560;51.364;12.384;2023-04-03T04:13:38;0.60;99.90
14934;DHT22;7560;51.364;12.384;2023-04-03T04:18:39;0.50;99.90
14934;DHT22;7560;51.364;12.384;2023-04-03T04:23:41;0.50;99.90
14934;DHT22;7560;51.364;12.384;2023-04-03T04:28:43;0.50;99.90
14934;DHT22;7560;51.364;12.384;2023-04-03T04:33:45;0.50;99.90
14934;DHT22;7560;51.364;12.384;2023-04-03T04:38:47;0.50;99.90
14934;DHT22;7560;51.364;12.384;2023-04-03T04:43:50;0.50;99.90
14934;DHT22;7560;51.364;12.384;2023-04-03T04:48:52;0.50;99.90
14934;DHT22;7560;51.364;12.384;2023-04-03T04:53:53;0.50;99.90
14934;DHT22;7560;51.364;12.384;2023-04-03T04:58:56;0.50;99.90
14934;DHT22;7560;51.364;12.384;2023-04-03T05:03:58;0.60;99.90
14934;DHT22;7560;51.364;12.384;2023-04-03T05:09:00;0.50;99.90
14934;DHT22;7560;51.364;12.384;2023-04-03T05:14:02;0.40;99.90
14934;DHT22;7560;51.364;12.384;2023-04-03T05:19:06;0.40;99.90
14934;DHT22;7560;51.364;12.384;2023-04-03T05:24:08;0.40;99.90
14934;DHT22;7560;51.364;12.384;2023-04-03T05:29:11;0.50;99.90
14934;DHT22;7560;51.364;12.384;2023-04-03T05:34:12;0.50;99.90
14934;DHT22;7560;51.364;12.384;2023-04-03T05:39:14;0.50;99.90
14934;DHT22;7560;51.364;12.384;2023-04-03T05:44:16;0.60;99.90
14934;DHT22;7560;51.364;12.384;2023-04-03T05:49:18;0.70;99.90
14934;DHT22;7560;51.364;12.384;2023-04-03T05:54:25;0.70;99.90
14934;DHT22;7560;51.364;12.384;2023-04-03T05:59:28;0.70;99.90
14934;DHT22;7560;51.364;12.384;2023-04-03T06:04:30;0.80;99.90
14934;DHT22;7560;51.364;12.384;2023-04-03T06:09:33;0.90;99.90
14934;DHT22;7560;51.364;12.384;2023-04-03T06:14:35;1.00;99.90
14934;DHT22;7560;51.364;12.384;2023-04-03T06:19:37;1.00;99.90
14934;DHT22;7560;51.364;12.384;2023-04-03T06:24:39;1.10;99.90
14934;DHT22;7560;51.364;12.384;2023-04-03T06:29:41;1.20;99.90
14934;DHT22;7560;51.364;12.384;2023-04-03T06:34:43;1.30;99.90
14934;DHT22;7560;51.364;12.384;2023-04-03T06:39:45;1.40;99.90
14934;DHT22;7560;51.364;12.384;2023-04-03T06:44:47;1.50;99.90
14934;DHT22;7560;51.364;12.384;2023-04-03T06:49:49;1.50;99.90
14934;DHT22;7560;51.364;12.384;2023-04-03T06:54:51;1.70;99.90
14934;DHT22;7560;51.364;12.384;2023-04-03T06:59:58;1.80;99.90
14934;DHT22;7560;51.364;12.384;2023-04-03T07:05:00;1.90;99.90
14934;DHT22;7560;51.364;12.384;2023-04-03T07:10:02;2.00;99.90
14934;DHT22;7560;51.364;12.384;2023-04-03T07:15:05;2.10;99.90
14934;DHT22;7560;51.364;12.384;2023-04-03T07:20:08;2.30;99.90
14934;DHT22;7560;51.364;12.384;2023-04-03T07:25:09;2.40;99.90
14934;DHT22;7560;51.364;12.384;2023-04-03T07:30:12;2.30;99.90
14934;DHT22;7560;51.364;12.384;2023-04-03T07:35:15;2.40;99.90
14934;DHT22;7560;51.364;12.384;2023-04-03T07:40:18;2.70;99.90
14934;DHT22;7560;51.364;12.384;2023-04-03T07:45:21;2.80;99.90
14934;DHT22;7560;51.364;12.384;2023-04-03T07:50:24;2.90;99.90
14934;DHT22;7560;51.364;12.384;2023-04-03T07:55:34;2.80;99.90
14934;DHT22;7560;51.364;12.384;2023-04-03T08:00:39;3.30;99.90
14934;DHT22;7560;51.364;12.384;2023-04-03T08:05:41;3.50;99.90
14934;DHT22;7560;51.364;12.384;2023-04-03T08:10:43;3.90;99.90
14934;DHT22;7560;51.364;12.384;2023-04-03T08:15:49;4.00;99.90
14934;DHT22;7560;51.364;12.384;2023-04-03T08:20:52;4.20;99.90
14934;DHT22;7560;51.364;12.384;2023-04-03T08:25:54;3.80;99.90
14934;DHT22;7560;51.364;12.384;2023-04-03T08:30:55;4.30;99.90
14934;DHT22;7560;51.364;12.384;2023-04-03T08:35:57;4.10;99.90
14934;DHT22;7560;51.364;12.384;2023-04-03T08:41:10;4.20;99.90
14934;DHT22;7560;51.364;12.384;2023-04-03T08:46:17;4.40;99.90
14934;DHT22;7560;51.364;12.384;2023-04-03T08:51:20;4.00;99.90
14934;DHT22;7560;51.364;12.384;2023-04-03T08:56:24;3.60;99.90
14934;DHT22;7560;51.364;12.384;2023-04-03T09:01:30;3.70;99.90
14934;DHT22;7560;51.364;12.384;2023-04-03T09:06:36;3.60;99.90
14934;DHT22;7560;51.364;12.384;2023-04-03T09:12:05;3.70;99.90
14934;DHT22;7560;51.364;12.384;2023-04-03T09:22:39;4.10;99.90
14934;DHT22;7560;51.364;12.384;2023-04-03T09:27:52;4.50;99.90
14934;DHT22;7560;51.364;12.384;2023-04-03T09:32:56;4.60;99.90
14934;DHT22;7560;51.364;12.384;2023-04-03T09:48:24;4.80;99.90
14934;DHT22;7560;51.364;12.384;2023-04-03T09:53:31;5.20;99.90
14934;DHT22;7560;51.364;12.384;2023-04-03T09:58:38;5.40;99.90
14934;DHT22;7560;51.364;12.384;2023-04-03T10:04:12;5.10;99.90
14934;DHT22;7560;51.364;12.384;2023-04-03T10:14:23;5.00;99.90
14934;DHT22;7560;51.364;12.384;2023-04-03T10:34:46;5.10;99.90
14934;DHT22;7560;51.364;12.384;2023-04-03T10:40:18;5.40;99.90
14934;DHT22;7560;51.364;12.384;2023-04-03T10:51:18;6.10;99.90
14934;DHT22;7560;51.364;12.384;2023-04-03T10:56:39;6.10;99.90
14934;DHT22;7560;51.364;12.384;2023-04-03T11:01:45;5.90;99.90
14934;DHT22;7560;51.364;12.384;2023-04-03T11:07:13;6.00;99.90
14934;DHT22;7560;51.364;12.384;2023-04-03T11:17:55;6.40;99.90
14934;DHT22;7560;51.364;12.384;2023-04-03T11:23:05;6.70;99.90
14934;DHT22;7560;51.364;12.384;2023-04-03T11:28:13;5.70;99.90
14934;DHT22;7560;51.364;12.384;2023-04-03T11:38:38;6.50;99.90
14934;DHT22;7560;51.364;12.384;2023-04-03T11:44:03;7.10;99.90
14934;DHT22;7560;51.364;12.384;2023-04-03T11:49:08;6.30;99.90
14934;DHT22;7560;51.364;12.384;2023-04-03T11:59:45;7.40;99.90
14934;DHT22;7560;51.364;12.384;2023-04-03T12:05:24;6.90;99.90
14934;DHT22;7560;51.364;12.384;2023-04-03T12:10:26;6.30;99.90
14934;DHT22;7560;51.364;12.384;2023-04-03T12:20:58;7.10;99.90
14934;DHT22;7560;51.364;12.384;2023-04-03T12:31:08;6.90;99.90
14934;DHT22;7560;51.364;12.384;2023-04-03T12:36:18;6.70;99.90
14934;DHT22;7560;51.364;12.384;2023-04-03T12:41:53;6.40;99.90
14934;DHT22;7560;51.364;12.384;2023-04-03T12:47:01;6.80;99.90
14934;DHT22;7560;51.364;12.384;2023-04-03T12:52:32;6.40;99.90
14934;DHT22;7560;51.364;12.384;2023-04-03T12:57:34;6.70;99.90
14934;DHT22;7560;51.364;12.384;2023-04-03T13:02:38;7.00;99.90
14934;DHT22;7560;51.364;12.384;2023-04-03T13:07:40;6.80;99.90
14934;DHT22;7560;51.364;12.384;2023-04-03T13:12:48;7.20;99.90
14934;DHT22;7560;51.364;12.384;2023-04-03T13:17:51;6.70;99.90
14934;DHT22;7560;51.364;12.384;2023-04-03T13:23:05;6.90;99.90
14934;DHT22;7560;51.364;12.384;2023-04-03T13:28:13;6.90;99.90
14934;DHT22;7560;51.364;12.384;2023-04-03T13:33:22;6.80;99.90
14934;DHT22;7560;51.364;12.384;2023-04-03T13:38:28;6.90;99.90
14934;DHT22;7560;51.364;12.384;2023-04-03T13:43:35;6.40;99.90
14934;DHT22;7560;51.364;12.384;2023-04-03T13:48:45;6.90;99.90
14934;DHT22;7560;51.364;12.384;2023-04-03T14:04:00;6.60;99.90
14934;DHT22;7560;51.364;12.384;2023-04-03T14:09:02;6.40;99.90
14934;DHT22;7560;51.364;12.384;2023-04-03T14:14:17;6.10;99.90
14934;DHT22;7560;51.364;12.384;2023-04-03T14:24:23;6.00;99.90
14934;DHT22;7560;51.364;12.384;2023-04-03T14:29:26;6.50;99.90
14934;DHT22;7560;51.364;12.384;2023-04-03T14:34:27;6.30;99.90
14934;DHT22;7560;51.364;12.384;2023-04-03T14:39:30;6.30;99.90
14934;DHT22;7560;51.364;12.384;2023-04-03T14:44:32;6.20;99.90
14934;DHT22;7560;51.364;12.384;2023-04-03T14:49:34;6.20;99.90
14934;DHT22;7560;51.364;12.384;2023-04-03T14:54:36;6.50;99.90
14934;DHT22;7560;51.364;12.384;2023-04-03T14:59:37;6.30;99.90
14934;DHT22;7560;51.364;12.384;2023-04-03T15:04:39;6.10;99.90
14934;DHT22;7560;51.364;12.384;2023-04-03T15:09:41;6.20;99.90
14934;DHT22;7560;51.364;12.384;2023-04-03T15:14:43;6.10;99.90
14934;DHT22;7560;51.364;12.384;2023-04-03T15:19:58;6.20;99.90
14934;DHT22;7560;51.364;12.384;2023-04-03T15:25:00;6.20;99.90
14934;DHT22;7560;51.364;12.384;2023-04-03T15:30:03;6.10;99.90
14934;DHT22;7560;51.364;12.384;2023-04-03T15:35:06;5.90;99.90
14934;DHT22;7560;51.364;12.384;2023-04-03T15:40:08;6.10;99.90
14934;DHT22;7560;51.364;12.384;2023-04-03T15:45:11;6.00;99.90
14934;DHT22;7560;51.364;12.384;2023-04-03T15:50:12;5.70;99.90
14934;DHT22;7560;51.364;12.384;2023-04-03T15:55:14;5.70;99.90
14934;DHT22;7560;51.364;12.384;2023-04-03T16:00:16;5.90;99.90
14934;DHT22;7560;51.364;12.384;2023-04-03T16:05:19;5.70;99.90
14934;DHT22;7560;51.364;12.384;2023-04-03T16:10:21;5.80;99.90
14934;DHT22;7560;51.364;12.384;2023-04-03T16:15:23;5.70;99.90
14934;DHT22;7560;51.364;12.384;2023-04-03T16:20:26;5.60;99.90
14934;DHT22;7560;51.364;12.384;2023-04-03T16:25:28;5.60;99.90
14934;DHT22;7560;51.364;12.384;2023-04-03T16:30:33;5.60;99.90
14934;DHT22;7560;51.364;12.384;2023-04-03T16:35:34;5.60;99.90
14934;DHT22;7560;51.364;12.384;2023-04-03T16:40:37;5.70;99.90
14934;DHT22;7560;51.364;12.384;2023-04-03T16:45:38;5.70;99.90
14934;DHT22;7560;51.364;12.384;2023-04-03T16:50:45;5.60;99.90
14934;DHT22;7560;51.364;12.384;2023-04-03T16:55:49;5.60;99.90
14934;DHT22;7560;51.364;12.384;2023-04-03T17:00:52;5.70;99.90
14934;DHT22;7560;51.364;12.384;2023-04-03T17:05:55;5.50;99.90
14934;DHT22;7560;51.364;12.384;2023-04-03T17:10:57;5.40;99.90
14934;DHT22;7560;51.364;12.384;2023-04-03T17:15:59;5.40;99.90
14934;DHT22;7560;51.364;12.384;2023-04-03T17:21:02;5.30;99.90
14934;DHT22;7560;51.364;12.384;2023-04-03T17:26:04;5.40;99.90
14934;DHT22;7560;51.364;12.384;2023-04-03T17:31:07;5.40;99.90
14934;DHT22;7560;51.364;12.384;2023-04-03T17:36:09;5.40;99.90
14934;DHT22;7560;51.364;12.384;2023-04-03T17:41:11;5.30;99.90
14934;DHT22;7560;51.364;12.384;2023-04-03T17:46:13;5.20;99.90
14934;DHT22;7560;51.364;12.384;2023-04-03T17:51:20;5.20;99.90
14934;DHT22;7560;51.364;12.384;2023-04-03T17:56:24;5.20;99.90
14934;DHT22;7560;51.364;12.384;2023-04-03T18:01:33;5.20;99.90
14934;DHT22;7560;51.364;12.384;2023-04-03T18:06:40;5.20;99.90
14934;DHT22;7560;51.364;12.384;2023-04-03T18:11:44;5.20;99.90
14934;DHT22;7560;51.364;12.384;2023-04-03T18:16:46;5.10;99.90
14934;DHT22;7560;51.364;12.384;2023-04-03T18:21:49;5.00;99.90
14934;DHT22;7560;51.364;12.384;2023-04-03T18:26:55;4.90;99.90
14934;DHT22;7560;51.364;12.384;2023-04-03T18:32:00;5.00;99.90
14934;DHT22;7560;51.364;12.384;2023-04-03T18:37:11;4.90;99.90
14934;DHT22;7560;51.364;12.384;2023-04-03T18:42:24;4.90;99.90
14934;DHT22;7560;51.364;12.384;2023-04-03T18:47:29;4.90;99.90
14934;DHT22;7560;51.364;12.384;2023-04-03T18:52:31;4.90;99.90
14934;DHT22;7560;51.364;12.384;2023-04-03T18:57:33;4.90;99.90
14934;DHT22;7560;51.364;12.384;2023-04-03T19:02:35;4.90;99.90
14934;DHT22;7560;51.364;12.384;2023-04-03T19:07:37;4.90;99.90
14934;DHT22;7560;51.364;12.384;2023-04-03T19:12:39;4.80;99.90
14934;DHT22;7560;51.364;12.384;2023-04-03T19:17:41;4.70;99.90
14934;DHT22;7560;51.364;12.384;2023-04-03T19:22:43;4.70;99.90
14934;DHT22;7560;51.364;12.384;2023-04-03T19:27:45;4.70;99.90
14934;DHT22;7560;51.364;12.384;2023-04-03T19:32:47;4.70;99.90
14934;DHT22;7560;51.364;12.384;2023-04-03T19:37:49;4.70;99.90
14934;DHT22;7560;51.364;12.384;2023-04-03T19:42:51;4.70;99.90
14934;DHT22;7560;51.364;12.384;2023-04-03T19:47:53;4.70;99.90
14934;DHT22;7560;51.364;12.384;2023-04-03T19:52:55;4.70;99.90
14934;DHT22;7560;51.364;12.384;2023-04-03T19:57:59;4.60;99.90
14934;DHT22;7560;51.364;12.384;2023-04-03T20:03:01;4.70;99.90
14934;DHT22;7560;51.364;12.384;2023-04-03T20:08:03;4.70;99.90
14934;DHT22;7560;51.364;12.384;2023-04-03T20:13:06;4.70;99.90
14934;DHT22;7560;51.364;12.384;2023-04-03T20:18:13;4.60;99.90
14934;DHT22;7560;51.364;12.384;2023-04-03T20:23:18;4.60;99.90
14934;DHT22;7560;51.364;12.384;2023-04-03T20:28:21;4.60;99.90
14934;DHT22;7560;51.364;12.384;2023-04-03T20:33:24;4.50;99.90
14934;DHT22;7560;51.364;12.384;2023-04-03T20:38:26;4.40;99.90
14934;DHT22;7560;51.364;12.384;2023-04-03T20:43:28;4.40;99.90
14934;DHT22;7560;51.364;12.384;2023-04-03T20:48:30;4.40;99.90
14934;DHT22;7560;51.364;12.384;2023-04-03T20:53:32;4.50;99.90
14934;DHT22;7560;51.364;12.384;2023-04-03T20:58:35;4.40;99.90
14934;DHT22;7560;51.364;12.384;2023-04-03T21:03:39;4.50;99.90
14934;DHT22;7560;51.364;12.384;2023-04-03T21:19:59;4.50;99.90
14934;DHT22;7560;51.364;12.384;2023-04-03T21:25:01;4.40;99.90
14934;DHT22;7560;51.364;12.384;2023-04-03T21:30:03;4.30;99.90
14934;DHT22;7560;51.364;12.384;2023-04-03T21:35:05;4.30;99.90
14934;DHT22;7560;51.364;12.384;2023-04-03T21:40:09;4.30;99.90
14934;DHT22;7560;51.364;12.384;2023-04-03T21:45:11;4.30;99.90
14934;DHT22;7560;51.364;12.384;2023-04-03T21:50:16;4.20;99.90
14934;DHT22;7560;51.364;12.384;2023-04-03T21:55:19;4.30;99.90
14934;DHT22;7560;51.364;12.384;2023-04-03T22:00:21;4.30;99.90
14934;DHT22;7560;51.364;12.384;2023-04-03T22:05:24;4.20;99.90
14934;DHT22;7560;51.364;12.384;2023-04-03T22:10:27;4.20;99.90
14934;DHT22;7560;51.364;12.384;2023-04-03T22:15:28;4.00;99.90
14934;DHT22;7560;51.364;12.384;2023-04-03T22:20:30;3.90;99.90
14934;DHT22;7560;51.364;12.384;2023-04-03T22:25:32;3.90;99.90
14934;DHT22;7560;51.364;12.384;2023-04-03T22:30:34;4.00;99.90
14934;DHT22;7560;51.364;12.384;2023-04-03T22:35:50;4.00;99.90
14934;DHT22;7560;51.364;12.384;2023-04-03T22:41:00;3.90;99.90
14934;DHT22;7560;51.364;12.384;2023-04-03T22:46:04;3.90;99.90
14934;DHT22;7560;51.364;12.384;2023-04-03T22:51:07;4.00;99.90
14934;DHT22;7560;51.364;12.384;2023-04-03T22:56:09;3.90;99.90
14934;DHT22;7560;51.364;12.384;2023-04-03T23:01:14;3.90;99.90
14934;DHT22;7560;51.364;12.384;2023-04-03T23:06:16;3.80;99.90
14934;DHT22;7560;51.364;12.384;2023-04-03T23:11:18;3.80;99.90
14934;DHT22;7560;51.364;12.384;2023-04-03T23:16:20;3.80;99.90
14934;DHT22;7560;51.364;12.384;2023-04-03T23:21:22;3.80;99.90
14934;DHT22;7560;51.364;12.384;2023-04-03T23:26:23;3.80;99.90
14934;DHT22;7560;51.364;12.384;2023-04-03T23:31:26;3.80;99.90
14934;DHT22;7560;51.364;12.384;2023-04-03T23:36:27;3.70;99.90
14934;DHT22;7560;51.364;12.384;2023-04-03T23:41:29;3.70;99.90
14934;DHT22;7560;51.364;12.384;2023-04-03T23:46:31;3.70;99.90
14934;DHT22;7560;51.364;12.384;2023-04-03T23:51:33;3.80;99.90
14934;DHT22;7560;51.364;12.384;2023-04-03T23:56:35;3.80;99.90
